x

Muskegon, Mi (mkgm4) Weather Station

3:15pm - Sun 1st Feb 2015 All times are CST. -6 hours from GMT.

  • Wind
    21mph, 31mph gusts
  • Air Temp 16°f
  • Sea Pressure 1015mb
  • Muskegon, Mi
  • Muskegon, Mi

More Historic Weather Station data

Upgrade to MSW Pro to gain access to the past 30 days of data for over 8000 Wavebouys and Weather Stations around the globe.

Join Pro

Comparision Forecast

View Surf forecast
   
Sun 02/01 3:15pm 21 31 mph 1015mb 16f
3:00pm 23 33 mph 1015.1mb 16f
2:45pm 20 28 mph 1015.1mb 16f
2:30pm 28 38 mph 1014.9mb 16f
2:15pm 26 40 mph 1015mb 16f
2:00pm 25 33 mph 1015.3mb 16f
1:45pm 25 36 mph 1015.7mb 16f
1:30pm 22 29 mph 1016.1mb 16f
1:15pm 23 32 mph 1016.4mb 16f
1:00pm 20 29 mph 1016.8mb 16f
12:45pm 25 34 mph 1017.1mb 16f
12:30pm 26 38 mph 1017.7mb 16f
12:15pm 22 30 mph 1017.9mb 16f
12:00pm 25 33 mph 1018.3mb 16f
11:45am 22 29 mph 1018.5mb 16f
11:30am 25 36 mph 1018.8mb 16f
11:15am 25 34 mph 1019.3mb 16f
11:00am 23 30 mph 1019.8mb 17f
10:45am 21 29 mph 1020.4mb 17f
10:30am 22 29 mph 1020.4mb 17f
10:15am 22 30 mph 1021mb 17f
10:00am 20 26 mph 1021.1mb 17f
9:45am 21 28 mph 1021mb 17f
9:30am 21 26 mph 1021.3mb 17f
9:15am 21 28 mph 1021.3mb 17f
9:00am 22 26 mph 1021.6mb 17f
8:45am 20 26 mph 1021.4mb 17f
8:30am 22 30 mph 1021.7mb 17f
8:15am 17 26 mph 1021.9mb 17f
8:00am 20 26 mph 1022mb 17f
7:45am 20 25 mph 1022mb 17f
7:30am 22 26 mph 1022.1mb 17f
7:15am 20 26 mph 1022.4mb 17f
7:00am 20 28 mph 1022.6mb 17f
6:45am 20 28 mph 1022.7mb 17f
6:30am 16 24 mph 1022.8mb 17f
6:15am 16 26 mph 1022.9mb 18f
6:00am 16 23 mph 1023.1mb 18f
5:45am 15 21 mph 1023.2mb 19f
5:30am 15 22 mph 1023.3mb 19f
5:15am 13 18 mph 1023.4mb 20f
5:00am 14 18 mph 1023.5mb 20f
4:45am 16 22 mph 1023.4mb 20f
4:30am 14 22 mph 1023.5mb 20f
4:15am 14 17 mph 1023.4mb 20f
4:00am 14 21 mph 1023.2mb 20f
3:45am 17 22 mph 1023.2mb 21f
3:30am 18 24 mph 1023.4mb 21f
3:15am 15 18 mph 1023.6mb 22f
3:00am 15 21 mph 1023.9mb 22f
2:45am 16 22 mph 1023.8mb 22f
2:30am 14 23 mph 1023.7mb 23f
2:15am 13 20 mph 1024.1mb 23f
2:00am 14 20 mph 1024.2mb 24f
1:45am 11 20 mph 1024.3mb 24f
1:30am 13 17 mph 1024.2mb 25f
1:15am 13 17 mph 1024.1mb 26f
1:00am 13 16 mph 1024.2mb 26f
12:45am 10 16 mph 1024.4mb 27f
12:30am 9 13 mph 1024.5mb 28f
12:15am 10 14 mph 1024.5mb 28f
12:00am 10 15 mph 1024.4mb 28f
Sat 01/31 11:45pm 13 16 mph 1024.3mb 28f
11:30pm 10 16 mph 1024.3mb 28f
11:15pm 11 15 mph 1024.3mb 28f
11:00pm 9 14 mph 1024.2mb 28f
10:45pm 11 16 mph 1023.8mb 28f
10:30pm 11 14 mph 1023.9mb 28f
10:15pm 10 14 mph 1024mb 28f
10:00pm 11 15 mph 1023.9mb 28f
9:45pm 13 16 mph 1023.9mb 28f
9:30pm 14 20 mph 1024mb 28f
9:15pm 11 15 mph 1024.1mb 29f
9:00pm 9 13 mph 1024.2mb 29f
8:45pm 8 13 mph 1024.3mb 29f
8:30pm 10 14 mph 1024.4mb 29f
8:15pm 6 8 mph 1024.3mb 29f
8:00pm 8 11 mph 1024.3mb 30f
7:30pm 6 8 mph 1024.3mb 30f
7:15pm 6 7 mph 1024.3mb 30f
7:00pm 6 7 mph 1024.1mb 30f
6:45pm 5 7 mph 1024mb 30f
6:30pm 6
mph
1024mb 30f
6:15pm 5 6 mph 1024.1mb 30f
6:00pm 7
mph
1024.1mb 30f
5:00pm 7 9 mph 1023.7mb 30f
4:45pm 7 9 mph 1023.7mb 30f
4:30pm 7 8 mph 1023.6mb 30f
4:15pm 7 8 mph 1023.5mb 31f
4:00pm 7 8 mph 1023.6mb 31f
3:45pm 6
mph
1023.4mb 31f
3:30pm 6
mph
1023.2mb 31f
3:15pm 5 6 mph 1023.2mb 31f
3:00pm 6 7 mph 1023.2mb 31f
2:45pm 7 8 mph 1023.2mb 31f
2:30pm 7 8 mph 1023.2mb 31f
2:15pm 7 9 mph 1023.1mb 31f
2:00pm 8 9 mph 1022.9mb 31f
1:45pm 9 11 mph 1022.9mb 31f
1:30pm 9 10 mph 1022.9mb 32f
1:15pm 9 10 mph 1023mb 32f
1:00pm 10 13 mph 1023mb 32f
12:45pm 9 13 mph 1023mb 31f
12:30pm 10
mph
1023.1mb 31f
12:15pm 11 13 mph 1023.1mb 32f
12:00pm 13 15 mph 1023.2mb 32f
11:45am 11 14 mph 1023.3mb 32f
11:30am 10 13 mph 1023.2mb 32f
11:15am 13 14 mph 1023.1mb 33f
11:00am 14 15 mph 1023.4mb 32f
10:45am 15 16 mph 1023.5mb 32f
10:30am 15 16 mph 1023.6mb 32f
10:15am 16 18 mph 1023.7mb 32f
10:00am 17 20 mph 1023.6mb 32f
9:45am 17 21 mph 1023.6mb 32f
9:30am 17 21 mph 1023.7mb 32f
9:15am 17 22 mph 1023.8mb 32f
9:00am 20 22 mph 1023.9mb 32f
8:45am 20 22 mph 1024mb 32f
8:30am 20 23 mph 1024mb 32f
8:15am 20 22 mph 1024.2mb 32f
8:00am 18 22 mph 1024.1mb 32f
7:45am 18 22 mph 1024.2mb 31f
7:30am 20 21 mph 1024.1mb 31f
7:15am 20 23 mph 1024.2mb 31f
7:00am 18 23 mph 1024.2mb 30f
6:45am 20 22 mph 1024.3mb 30f
6:30am 20 22 mph 1024.4mb 30f
6:15am 18 21 mph 1024.5mb 30f
6:00am 20 21 mph 1024.7mb 30f
5:45am 17 20 mph 1024.9mb 30f
5:30am 17 20 mph 1025mb 29f
5:15am 15 17 mph 1025mb 29f
5:00am 14 16 mph 1025.2mb 29f
4:45am 15 17 mph 1025.3mb 29f
4:30am 16 17 mph 1025.7mb 28f
4:15am 17 20 mph 1025.7mb 28f
4:00am 16 18 mph 1025.9mb 28f
3:45am 16 18 mph 1026mb 28f
3:30am 17 20 mph 1026.2mb 28f
3:15am 16 17 mph 1026.3mb 28f
3:00am 16 18 mph 1026.4mb 28f
2:45am 16 18 mph 1026.5mb 28f
2:30am 16 18 mph 1026.8mb 28f
2:15am 15 17 mph 1027mb 28f
2:00am 15 18 mph 1027.3mb 29f
1:45am 15 17 mph 1027.6mb 29f
1:30am 14 16 mph 1027.4mb 28f
1:15am 15 18 mph 1027.5mb 28f
1:00am 15 16 mph 1027.9mb 28f
12:45am 16 18 mph 1028mb 28f
12:30am 16 20 mph 1028.2mb 28f
12:15am 17 20 mph 1028.2mb 28f
12:00am 17 20 mph 1028.5mb 28f
Fri 01/30 11:45pm 18 21 mph 1028.6mb 28f
11:30pm 18 21 mph 1028.7mb 28f
11:15pm 18 21 mph 1028.8mb 28f
11:00pm 18 21 mph 1029.2mb 28f
10:45pm 16 21 mph 1029.4mb 27f
10:30pm 14 17 mph 1029.6mb 27f
10:15pm 14 16 mph 1029.7mb 27f
10:00pm 15 17 mph 1029.6mb 26f
9:45pm 14 17 mph 1029.9mb 26f
9:30pm 13 14 mph 1030mb 25f
9:15pm 11 14 mph 1030.3mb 25f
9:00pm 11 13 mph 1030.5mb 25f
8:45pm 10 13 mph 1030.7mb 24f
8:30pm 9 11 mph 1030.8mb 24f
8:15pm 10 13 mph 1031mb 24f
8:00pm 10 11 mph 1031.4mb 24f
7:45pm 7 9 mph 1031.6mb 23f
7:30pm 5 7 mph 1031.6mb 23f
7:15pm 6 8 mph 1031.6mb 23f
7:00pm 6 8 mph 1032.1mb 23f
6:45pm 7 9 mph 1032.2mb 23f
6:30pm 8 10 mph 1032.3mb 23f
6:15pm 6 8 mph 1032.1mb 22f
6:00pm 8 9 mph 1032.4mb 22f
5:45pm 7 9 mph 1032mb 22f
5:30pm 6 9 mph 1032.2mb 22f
5:15pm 7 11 mph 1032.4mb 22f
5:00pm 8 10 mph 1032.5mb 22f
4:45pm 9 13 mph 1032.5mb 22f
4:30pm 9 11 mph 1032.6mb 22f
4:15pm 9 13 mph 1032.7mb 22f
4:00pm 5 7 mph 1032.8mb 22f
3:45pm 8 10 mph 1032.8mb 22f
3:30pm 9 13 mph 1033.2mb 22f
3:15pm 9 13 mph 1033.2mb 22f
3:00pm 11 14 mph 1033.5mb 22f
2:45pm 10 13 mph 1033.4mb 22f
2:30pm 8 11 mph 1033.2mb 23f
2:15pm 7 10 mph 1033.5mb 23f
2:00pm 9 13 mph 1033.4mb 22f
1:45pm 8 10 mph 1033.3mb 22f
1:30pm 6 8 mph 1033.4mb 22f
1:15pm 6 8 mph 1033.6mb 22f
1:00pm 9 11 mph 1033.9mb 22f
12:45pm 8 11 mph 1034.2mb 22f
12:30pm 9 13 mph 1034.4mb 22f
12:15pm 7 9 mph 1034.3mb 22f
12:00pm 6 8 mph 1034.3mb 22f
11:45am 8 10 mph 1034.5mb 22f
11:30am 6 9 mph 1034.8mb 23f
11:15am 9 11 mph 1034.9mb 22f
11:00am 13 16 mph 1035mb 22f
10:45am 8 11 mph 1034.9mb 22f
10:30am 11 15 mph 1034.9mb 22f
10:15am 10 13 mph 1034.9mb 22f
10:00am 8 10 mph 1034.6mb 22f
9:45am 9 14 mph 1034.7mb 22f
9:30am 9 13 mph 1034.7mb 21f
9:15am 13 17 mph 1034.6mb 20f
9:00am 9 11 mph 1034.4mb 20f
8:45am 8 10 mph 1034.5mb 20f
8:30am 8 10 mph 1034.4mb 20f
8:15am 11 15 mph 1034.2mb 20f
8:00am 9 13 mph 1034.1mb 20f
7:45am 9 11 mph 1033.8mb 20f
7:30am 7 9 mph 1033.6mb 20f
7:15am 9 11 mph 1033.5mb 19f
7:00am 13 14 mph 1033.3mb 19f
6:45am 13 17 mph 1033.2mb 19f
6:30am 11 18 mph 1033.1mb 20f
6:15am 10 16 mph 1032.8mb 20f
6:00am 16 22 mph 1032.5mb 20f
5:45am 14 18 mph 1032.2mb 20f
5:30am 11 17 mph 1031.9mb 20f
5:15am 16 20 mph 1031.7mb 20f
5:00am 18 23 mph 1031.6mb 21f
4:45am 20 25 mph 1031.5mb 21f
4:30am 18 24 mph 1031.3mb 21f
4:15am 21 25 mph 1031mb 21f
4:00am 17 23 mph 1030.7mb 21f
3:45am 18 23 mph 1030.5mb 21f
3:30am 21 31 mph 1030.4mb 21f
3:15am 20 24 mph 1030.2mb 21f
3:00am 23 30 mph 1030mb 21f
2:45am 20 26 mph 1029.7mb 21f
2:30am 16 25 mph 1029.5mb 21f
2:15am 20 24 mph 1029.3mb 22f
2:00am 21 26 mph 1029.1mb 22f
1:45am 18 24 mph 1028.8mb 22f
1:30am 16 23 mph 1028.6mb 22f
1:15am 20 29 mph 1028.5mb 22f
1:00am 17 22 mph 1028.2mb 22f
12:45am 21 30 mph 1028mb 23f
12:30am 17 23 mph 1027.8mb 23f
12:15am 21 26 mph 1027.6mb 23f
12:00am 18 26 mph 1027.4mb 23f
Thu 01/29 11:45pm 17 24 mph 1027.2mb 23f
11:30pm 15 23 mph 1027.2mb 23f
11:15pm 14 20 mph 1027mb 22f
11:00pm 13 18 mph 1026.9mb 22f
10:45pm 14 20 mph 1026.6mb 22f
10:30pm 17 22 mph 1026.4mb 23f
10:15pm 18 28 mph 1025.9mb 25f
10:00pm 21 29 mph 1025.6mb 25f
9:45pm 21 29 mph 1025.2mb 26f
9:30pm 22 29 mph 1024.5mb 27f
9:15pm 16 23 mph 1024.1mb 27f
9:00pm 20 29 mph 1023.8mb 27f
8:45pm 25 38 mph 1023.3mb 28f
8:30pm 22 29 mph 1022.6mb 30f
8:15pm 21 29 mph 1022.3mb 30f
8:00pm 21 28 mph 1022.1mb 30f
7:45pm 22 28 mph 1021.8mb 31f
7:30pm 23 31 mph 1021.5mb 31f
7:15pm 17 23 mph 1021.2mb 31f
7:00pm 22 30 mph 1020.9mb 31f
6:45pm 23 29 mph 1020.5mb 31f
6:30pm 17 23 mph 1020mb 33f
6:15pm 16 22 mph 1019.4mb 34f
6:00pm 14 18 mph 1019.1mb 34f
5:45pm 18 22 mph 1018.9mb 33f
5:30pm 20 26 mph 1018.7mb 33f
5:15pm 15 20 mph 1018.4mb 33f
5:00pm 17 22 mph 1018.1mb 33f
4:45pm 17 24 mph 1017.9mb 33f
4:30pm 18 30 mph 1017.4mb 33f
4:15pm 18 24 mph 1017mb 33f
4:00pm 23 32 mph 1016.6mb 33f
3:45pm 20 26 mph 1016.2mb 33f
3:30pm 20 26 mph 1015.7mb 33f
3:15pm 22 29 mph 1015.3mb 33f
3:00pm 21 28 mph 1014.9mb 33f
2:45pm 24 29 mph 1014.4mb 33f
2:30pm 23 29 mph 1014.1mb 33f
2:15pm 22 29 mph 1013.7mb 33f
2:00pm 23 28 mph 1013.3mb 34f
1:45pm 16 22 mph 1013mb 33f
1:30pm 16 23 mph 1012.7mb 33f
1:15pm 18 24 mph 1012.4mb 33f
1:00pm 18 25 mph 1012.2mb 33f
12:30pm 15 20 mph 1011.8mb 33f
12:15pm 16 21 mph 1011.7mb 33f
12:00pm 16 22 mph 1011.7mb 33f
11:45am 16 23 mph 1011.5mb 33f
11:30am 17 23 mph 1011.5mb 32f
11:15am 17 24 mph 1011.3mb 32f
11:00am 16 22 mph 1011.3mb 31f
10:45am 10 14 mph 1011.3mb 30f
10:30am 11 13 mph 1011.2mb 30f
10:15am 9 10 mph 1011mb 30f
10:00am 6 7 mph 1010.7mb 30f
9:45am 5 7 mph 1010.6mb 30f
9:30am 6 7 mph 1010.2mb 30f
9:15am 5 7 mph 1009.9mb 30f
9:00am 6 7 mph 1009.7mb 30f
8:45am 6 8 mph 1009.4mb 30f
8:30am 6 7 mph 1009.4mb 30f
8:15am 6 7 mph 1009.4mb 30f
8:00am 6 7 mph 1009.4mb 30f
7:45am 6 7 mph 1009.3mb 30f
7:30am 7 8 mph 1009.1mb 30f
7:15am 7 8 mph 1008.9mb 30f
7:00am 8 9 mph 1008.8mb 30f
6:45am 8 9 mph 1008.7mb 30f
6:30am 8 9 mph 1008.7mb 30f
6:15am 7 9 mph 1008.7mb 30f
6:00am 8 10 mph 1008.6mb 30f
5:45am 8 10 mph 1008.6mb 30f
5:30am 8 10 mph 1008.8mb 29f
5:15am 8 10 mph 1009mb 29f
5:00am 8 9 mph 1009.1mb 29f
4:45am 8 9 mph 1009.4mb 29f
4:30am 7 9 mph 1009.6mb 29f
4:15am 8 10 mph 1009.9mb 29f
4:00am 7 9 mph 1010.1mb 29f
3:45am 7 10 mph 1010.3mb 29f
3:30am 9 10 mph 1010.6mb 29f
3:15am 9 13 mph 1010.8mb 29f
3:00am 10 14 mph 1011mb 29f
2:45am 10 13 mph 1011.4mb 29f
2:30am 9 15 mph 1011.8mb 29f
2:15am 9 14 mph 1012.2mb 29f
2:00am 10 15 mph 1012.4mb 29f
1:45am 9 14 mph 1012.7mb 29f
1:30am 8 11 mph 1012.9mb 29f
1:15am 9 14 mph 1013mb 29f
1:00am 9 13 mph 1013.1mb 29f
12:45am 8 10 mph 1013.5mb 29f
12:30am 11 16 mph 1013.5mb 28f
12:15am 10 16 mph 1014.1mb 28f
12:00am 11 17 mph 1014.3mb 28f
Wed 01/28 11:45pm 11 17 mph 1014.6mb 28f
11:30pm 10 18 mph 1014.7mb 28f
11:15pm 13 17 mph 1015.2mb 28f
11:00pm 11 17 mph 1015.5mb 28f
10:45pm 11 18 mph 1015.8mb 28f
10:30pm 16 21 mph 1016.4mb 28f
10:15pm 14 17 mph 1016.7mb 29f